createdAt,value
2022-12-15T00:02:19.971Z,30.35
2022-12-15T00:05:06.615Z,29.60
2022-12-15T00:07:53.100Z,29.40
2022-12-15T00:10:39.245Z,30.65
2022-12-15T00:13:32.671Z,32.50
2022-12-15T00:16:19.087Z,34.55
2022-12-15T00:19:05.576Z,32.58
2022-12-15T00:21:51.960Z,31.83
2022-12-15T00:24:37.918Z,35.70
2022-12-15T00:27:24.569Z,32.15
2022-12-15T00:30:10.788Z,30.88
2022-12-15T00:32:57.105Z,31.95
2022-12-15T00:35:43.574Z,31.48
2022-12-15T00:38:31.894Z,32.45
2022-12-15T00:41:00.280Z,30.90
2022-12-15T00:43:29.421Z,33.20
2022-12-15T00:46:16.467Z,31.40
2022-12-15T00:48:44.307Z,33.22
2022-12-15T00:51:11.951Z,34.75
2022-12-15T00:53:58.684Z,32.95
2022-12-15T00:56:45.193Z,33.38
2022-12-15T00:59:31.781Z,34.30
2022-12-15T01:02:18.048Z,32.17
2022-12-15T01:05:04.141Z,32.00
2022-12-15T01:07:50.576Z,33.42
2022-12-15T01:10:37.645Z,35.78
2022-12-15T01:13:24.307Z,33.38
2022-12-15T01:16:10.610Z,34.78
2022-12-15T01:18:56.852Z,28.80
2022-12-15T01:21:25.532Z,33.65
2022-12-15T01:23:53.978Z,29.30
2022-12-15T01:26:21.486Z,30.50
2022-12-15T01:28:49.096Z,30.08
2022-12-15T01:31:16.658Z,28.77
2022-12-15T01:33:44.231Z,29.23
2022-12-15T01:36:12.208Z,27.08
2022-12-15T01:38:39.711Z,26.65
2022-12-15T01:41:09.997Z,28.13
2022-12-15T01:43:38.632Z,27.95
2022-12-15T01:46:07.525Z,29.67
2022-12-15T01:48:54.125Z,30.40
2022-12-15T01:51:26.715Z,31.40
2022-12-15T01:54:06.537Z,29.60
2022-12-15T01:56:37.711Z,28.45
2022-12-15T01:59:08.166Z,34.00
2022-12-15T02:01:35.957Z,27.05
2022-12-15T02:04:03.926Z,29.45
2022-12-15T02:06:31.424Z,27.63
2022-12-15T02:09:00.221Z,29.67
2022-12-15T02:11:41.573Z,28.10
2022-12-15T02:14:10.936Z,27.23
2022-12-15T02:16:44.668Z,27.88
2022-12-15T02:19:27.704Z,24.52
2022-12-15T02:21:55.183Z,26.83
2022-12-15T02:24:41.134Z,25.10
2022-12-15T02:27:21.024Z,27.98
2022-12-15T02:30:07.492Z,28.08
2022-12-15T02:32:39.624Z,26.40
2022-12-15T02:35:09.698Z,27.65
2022-12-15T02:37:38.612Z,27.95
2022-12-15T02:40:08.490Z,29.40
2022-12-15T02:42:37.540Z,31.45
2022-12-15T02:45:10.770Z,30.02
2022-12-15T02:47:46.014Z,30.40
2022-12-15T02:50:32.510Z,31.17
2022-12-15T02:53:15.384Z,35.20
2022-12-15T02:56:01.771Z,30.88
2022-12-15T02:58:36.940Z,34.15
2022-12-15T03:01:07.168Z,31.88
2022-12-15T03:03:36.022Z,30.70
2022-12-15T03:06:04.205Z,34.20
2022-12-15T03:08:31.768Z,36.40
2022-12-15T03:10:59.412Z,35.00
2022-12-15T03:13:27.027Z,34.60
2022-12-15T03:15:54.606Z,35.72
2022-12-15T03:18:22.295Z,34.28
2022-12-15T03:20:51.037Z,34.67
2022-12-15T03:23:18.557Z,33.33
2022-12-15T03:25:46.397Z,33.08
2022-12-15T03:28:17.792Z,37.15
2022-12-15T03:30:45.303Z,35.53
2022-12-15T03:33:17.897Z,38.58
2022-12-15T03:35:45.407Z,36.17
2022-12-15T03:38:13.179Z,37.85
2022-12-15T03:40:40.804Z,37.20
2022-12-15T03:43:08.321Z,40.22
2022-12-15T03:45:35.911Z,38.67
2022-12-15T03:48:03.471Z,36.28
2022-12-15T03:50:31.061Z,36.50
2022-12-15T03:52:59.605Z,33.88
2022-12-15T03:55:28.745Z,37.90
2022-12-15T03:57:56.465Z,35.72
2022-12-15T04:00:24.705Z,36.05
2022-12-15T04:02:52.616Z,36.40
2022-12-15T04:05:28.438Z,41.90
2022-12-15T04:07:56.933Z,37.38
2022-12-15T04:10:30.260Z,39.75
2022-12-15T04:13:02.370Z,41.40
2022-12-15T04:15:30.146Z,35.75
2022-12-15T04:17:58.380Z,37.17
2022-12-15T04:20:25.955Z,36.95
2022-12-15T04:22:53.513Z,37.67
2022-12-15T04:25:41.807Z,35.13
2022-12-15T04:28:28.958Z,38.17
2022-12-15T04:31:30.366Z,37.30
2022-12-15T04:34:24.419Z,42.78
2022-12-15T04:37:12.025Z,38.80
2022-12-15T04:40:00.117Z,39.47
2022-12-15T04:42:47.126Z,39.22
2022-12-15T04:45:34.379Z,45.10
2022-12-15T04:48:20.635Z,41.42
2022-12-15T04:51:06.967Z,38.83
2022-12-15T04:53:53.119Z,43.63
2022-12-15T04:56:39.335Z,38.00
2022-12-15T04:59:25.818Z,41.85
2022-12-15T05:02:12.294Z,42.60
2022-12-15T05:04:58.623Z,40.13
2022-12-15T05:07:44.996Z,41.63
2022-12-15T05:10:31.289Z,39.28
2022-12-15T05:13:27.021Z,40.88
2022-12-15T05:16:13.391Z,36.78
2022-12-15T05:18:59.913Z,40.35
2022-12-15T05:21:46.014Z,37.17
2022-12-15T05:24:32.478Z,39.88
2022-12-15T05:27:18.736Z,38.30
2022-12-15T05:30:04.715Z,39.10
2022-12-15T05:32:33.157Z,36.67
2022-12-15T05:35:01.279Z,40.05
2022-12-15T05:37:28.847Z,41.95
2022-12-15T05:39:56.369Z,40.50
2022-12-15T05:42:23.892Z,38.25
2022-12-15T05:44:51.455Z,40.42
2022-12-15T05:47:18.961Z,36.92
2022-12-15T05:49:46.483Z,40.50
2022-12-15T05:52:14.003Z,35.45
2022-12-15T05:54:42.375Z,40.03
2022-12-15T05:57:09.895Z,40.20
2022-12-15T05:59:37.413Z,40.03
2022-12-15T06:02:05.090Z,36.58
2022-12-15T06:04:32.892Z,36.30
2022-12-15T06:07:00.461Z,38.70
2022-12-15T06:09:28.927Z,36.00
2022-12-15T06:11:56.448Z,38.42
2022-12-15T06:14:23.984Z,38.20
2022-12-15T06:16:51.834Z,37.30
2022-12-15T06:19:20.153Z,36.45
2022-12-15T06:21:47.719Z,35.10
2022-12-15T06:24:15.305Z,33.20
2022-12-15T06:26:42.844Z,37.22
2022-12-15T06:29:11.959Z,36.15
2022-12-15T06:31:40.171Z,35.90
2022-12-15T06:34:09.077Z,36.45
2022-12-15T06:36:37.043Z,39.20
2022-12-15T06:39:05.280Z,32.88
2022-12-15T06:41:33.107Z,37.92
2022-12-15T06:44:01.436Z,33.92
2022-12-15T06:46:30.337Z,35.72
2022-12-15T06:48:58.246Z,39.05
2022-12-15T06:51:26.184Z,37.72
2022-12-15T06:53:55.711Z,36.53
2022-12-15T06:56:30.591Z,35.95
2022-12-15T06:59:02.228Z,41.50
2022-12-15T07:01:30.922Z,39.20
2022-12-15T07:04:02.977Z,42.10
2022-12-15T07:06:36.746Z,36.22
2022-12-15T07:09:05.421Z,41.50
2022-12-15T07:11:32.983Z,38.22
2022-12-15T07:14:00.570Z,39.25
2022-12-15T07:16:28.204Z,40.95
2022-12-15T07:18:55.737Z,36.72
2022-12-15T07:21:23.506Z,41.85
2022-12-15T07:23:56.404Z,42.95
2022-12-15T07:26:25.227Z,39.05
2022-12-15T07:28:53.815Z,40.95
2022-12-15T07:31:21.836Z,38.53
2022-12-15T07:33:49.608Z,40.05
2022-12-15T07:36:17.231Z,40.75
2022-12-15T07:38:49.852Z,68.32
2022-12-15T07:41:19.213Z,37.90
2022-12-15T07:43:47.536Z,42.05
2022-12-15T07:46:15.350Z,38.25
2022-12-15T07:48:43.062Z,41.83
2022-12-15T07:51:18.789Z,42.47
2022-12-15T07:53:50.948Z,41.63
2022-12-15T07:58:46.716Z,42.20
2022-12-15T08:01:15.335Z,39.15
2022-12-15T08:03:43.318Z,40.05
2022-12-15T08:06:12.423Z,37.72
2022-12-15T08:08:40.714Z,41.78
2022-12-15T08:11:09.485Z,41.60
2022-12-15T08:16:25.104Z,41.63
2022-12-15T08:18:52.798Z,38.00
2022-12-15T08:21:20.345Z,40.55
2022-12-15T08:23:47.978Z,42.33
2022-12-15T08:26:16.762Z,42.83
2022-12-15T08:28:44.692Z,42.20
2022-12-15T08:31:22.309Z,39.83
2022-12-15T08:33:50.249Z,41.33
2022-12-15T08:36:18.743Z,37.75
2022-12-15T08:38:46.672Z,40.63
2022-12-15T08:41:24.255Z,42.22
2022-12-15T08:43:52.105Z,41.58
2022-12-15T08:46:21.286Z,41.42
2022-12-15T08:48:49.174Z,38.42
2022-12-15T08:51:17.322Z,40.75
2022-12-15T08:53:45.657Z,42.53
2022-12-15T08:56:15.959Z,39.47
2022-12-15T08:58:43.775Z,39.55
2022-12-15T09:01:22.471Z,40.33
2022-12-15T09:03:51.876Z,40.33
2022-12-15T09:06:23.988Z,38.95
2022-12-15T09:08:54.465Z,38.80
2022-12-15T09:11:22.122Z,35.75
2022-12-15T09:13:49.667Z,36.25
2022-12-15T09:16:17.729Z,39.17
2022-12-15T09:18:46.598Z,34.80
2022-12-15T09:21:14.452Z,35.20
2022-12-15T09:23:42.107Z,42.28
2022-12-15T09:26:11.585Z,40.60
2022-12-15T09:28:39.404Z,39.42
2022-12-15T09:31:14.902Z,42.10
2022-12-15T09:33:43.173Z,40.25
2022-12-15T09:36:13.153Z,38.97
2022-12-15T09:38:41.685Z,40.25
2022-12-15T09:41:15.391Z,41.38
2022-12-15T09:43:49.935Z,40.08
2022-12-15T09:46:21.874Z,41.03
2022-12-15T09:51:18.574Z,44.72
2022-12-15T09:53:55.195Z,43.78
2022-12-15T09:56:27.628Z,41.80
2022-12-15T10:01:31.527Z,44.15
2022-12-15T10:04:02.419Z,39.75
2022-12-15T10:06:34.438Z,45.72
2022-12-15T10:09:04.742Z,42.08
2022-12-15T10:11:55.383Z,37.83
2022-12-15T10:14:36.638Z,44.30
2022-12-15T10:17:04.167Z,41.20
2022-12-15T10:19:38.855Z,40.17
2022-12-15T10:22:06.632Z,41.40
2022-12-15T10:27:28.354Z,45.25
2022-12-15T10:30:02.468Z,42.15
2022-12-15T10:32:30.139Z,41.08
2022-12-15T10:34:57.821Z,40.72
2022-12-15T10:38:10.394Z,39.47
2022-12-15T10:40:55.255Z,40.65
2022-12-15T10:43:31.912Z,38.55
2022-12-15T10:46:05.003Z,40.47
2022-12-15T10:48:32.819Z,41.20
2022-12-15T10:51:17.620Z,43.83
2022-12-15T10:53:50.674Z,41.53
2022-12-15T10:56:28.821Z,43.28
2022-12-15T10:59:02.748Z,46.05
2022-12-15T11:01:45.270Z,41.60
2022-12-15T11:04:25.991Z,43.00
2022-12-15T11:06:57.122Z,42.15
2022-12-15T11:09:29.469Z,42.78
2022-12-15T11:12:15.629Z,47.55
2022-12-15T11:14:48.157Z,42.15
2022-12-15T11:17:17.201Z,46.42
2022-12-15T11:19:49.166Z,45.90
2022-12-15T11:22:38.040Z,44.65
2022-12-15T11:25:24.555Z,48.47
2022-12-15T11:27:54.887Z,48.90
2022-12-15T11:30:23.082Z,46.38
2022-12-15T11:32:59.556Z,49.92
2022-12-15T11:35:42.147Z,49.70
2022-12-15T11:38:15.121Z,48.45
2022-12-15T11:40:43.544Z,50.50
2022-12-15T11:43:32.481Z,50.53
2022-12-15T11:46:06.927Z,46.22
2022-12-15T11:48:40.563Z,45.80
2022-12-15T11:51:27.224Z,47.90
2022-12-15T11:54:10.200Z,49.70
2022-12-15T11:56:45.418Z,48.58
2022-12-15T11:59:32.348Z,49.80
2022-12-15T12:02:18.881Z,46.65
2022-12-15T12:04:50.819Z,47.22
2022-12-15T12:07:28.762Z,50.03
2022-12-15T12:10:15.251Z,53.58
2022-12-15T12:12:47.371Z,49.95
2022-12-15T12:15:34.332Z,52.15
2022-12-15T12:18:08.198Z,50.03
2022-12-15T12:20:36.061Z,50.63
2022-12-15T12:23:12.882Z,51.45
2022-12-15T12:25:51.642Z,48.45
2022-12-15T12:28:30.557Z,53.03
2022-12-15T12:31:00.345Z,49.95
2022-12-15T12:33:34.103Z,55.17
2022-12-15T12:36:06.079Z,53.70
2022-12-15T12:38:41.627Z,54.35
2022-12-15T12:41:21.834Z,54.08
2022-12-15T12:43:53.575Z,50.83
2022-12-15T12:48:56.117Z,51.03
2022-12-15T12:51:31.396Z,47.63
2022-12-15T12:53:59.898Z,60.72
2022-12-15T12:56:45.323Z,49.80
2022-12-15T12:59:33.456Z,49.22
2022-12-15T13:02:20.157Z,49.38
2022-12-15T13:04:54.602Z,49.10
2022-12-15T13:07:30.097Z,47.83
2022-12-15T13:10:03.878Z,46.33
2022-12-15T13:12:54.794Z,49.70
2022-12-15T13:15:28.856Z,48.05
2022-12-15T13:18:11.677Z,42.90
2022-12-15T13:20:40.230Z,46.70
2022-12-15T13:23:24.501Z,47.38
2022-12-15T13:25:56.407Z,48.25
2022-12-15T13:28:29.908Z,50.13
2022-12-15T13:31:16.732Z,46.55
2022-12-15T13:33:51.032Z,52.67
2022-12-15T13:36:50.727Z,44.40
2022-12-15T13:39:22.587Z,47.25
2022-12-15T13:42:31.716Z,46.33
2022-12-15T13:44:45.541Z,37.22
2022-12-15T13:47:30.754Z,51.92
2022-12-15T13:50:02.687Z,51.67
2022-12-15T13:55:40.955Z,50.88
2022-12-15T13:58:16.859Z,52.72
2022-12-15T14:00:49.221Z,51.58
2022-12-15T14:03:18.602Z,51.45
2022-12-15T14:05:50.272Z,47.97
2022-12-15T14:08:19.222Z,52.92
2022-12-15T14:10:53.607Z,53.08
2022-12-15T14:13:21.896Z,57.17
2022-12-15T14:15:54.768Z,54.75
2022-12-15T14:18:24.213Z,58.70
2022-12-15T14:20:51.913Z,54.60
2022-12-15T14:23:20.932Z,56.63
2022-12-15T14:25:55.753Z,57.30
2022-12-15T14:28:30.559Z,58.30
2022-12-15T14:30:59.633Z,58.15
2022-12-15T14:33:29.785Z,57.72
2022-12-15T14:35:58.434Z,60.55
2022-12-15T14:38:40.977Z,57.92
2022-12-15T14:41:21.074Z,57.17
2022-12-15T14:44:30.704Z,63.22
2022-12-15T14:46:40.380Z,55.70
2022-12-15T14:49:10.960Z,55.58
2022-12-15T14:51:43.501Z,54.50
2022-12-15T14:54:33.370Z,60.25
2022-12-15T14:57:09.747Z,60.95
2022-12-15T14:59:40.753Z,55.13
2022-12-15T15:02:14.411Z,57.78
2022-12-15T15:04:42.335Z,55.08
2022-12-15T15:07:17.394Z,60.67
2022-12-15T15:09:46.792Z,53.70
2022-12-15T15:12:25.546Z,59.20
2022-12-15T15:14:55.105Z,57.17
2022-12-15T15:17:22.779Z,53.05
2022-12-15T15:19:52.556Z,60.45
2022-12-15T15:22:33.574Z,56.38
2022-12-15T15:25:01.812Z,51.55
2022-12-15T15:27:35.524Z,51.83
2022-12-15T15:30:17.944Z,53.35
2022-12-15T15:32:59.518Z,57.03
2022-12-15T15:35:31.102Z,50.90
2022-12-15T15:38:05.138Z,54.80
2022-12-15T15:40:32.807Z,50.97
2022-12-15T15:43:00.955Z,56.35
2022-12-15T15:45:28.667Z,50.95
2022-12-15T15:47:56.545Z,45.38
2022-12-15T15:50:27.660Z,53.08
2022-12-15T15:52:55.550Z,54.60
2022-12-15T15:55:37.817Z,49.15
2022-12-15T15:58:17.452Z,54.15
2022-12-15T16:01:12.920Z,52.72
2022-12-15T16:03:41.976Z,51.17
2022-12-15T16:06:16.430Z,49.22
2022-12-15T16:08:49.766Z,54.10
2022-12-15T16:11:22.419Z,52.78
2022-12-15T16:13:53.312Z,55.35
2022-12-15T16:16:32.944Z,56.28
2022-12-15T16:19:00.687Z,56.72
2022-12-15T16:21:28.807Z,55.88
2022-12-15T16:23:56.964Z,59.45
2022-12-15T16:26:28.637Z,58.65
2022-12-15T16:28:56.246Z,60.53
2022-12-15T16:31:37.107Z,55.08
2022-12-15T16:34:06.827Z,59.17
2022-12-15T16:36:35.123Z,60.78
2022-12-15T16:39:02.981Z,57.65
2022-12-15T16:41:30.575Z,58.00
2022-12-15T16:43:58.651Z,55.00
2022-12-15T16:46:26.777Z,56.08
2022-12-15T16:48:56.316Z,53.85
2022-12-15T16:51:32.880Z,57.60
2022-12-15T16:54:03.892Z,55.92
2022-12-15T16:56:34.073Z,57.97
2022-12-15T16:59:31.984Z,55.92
2022-12-15T17:01:49.566Z,57.05
2022-12-15T17:04:19.145Z,52.88
2022-12-15T17:06:46.946Z,54.40
2022-12-15T17:09:20.509Z,56.58
2022-12-15T17:11:48.493Z,54.33
2022-12-15T17:14:16.158Z,55.35
2022-12-15T17:16:43.833Z,55.97
2022-12-15T17:19:13.919Z,55.00
2022-12-15T17:21:46.818Z,59.17
2022-12-15T17:24:15.494Z,54.33
2022-12-15T17:26:44.370Z,59.97
2022-12-15T17:29:17.078Z,54.08
2022-12-15T17:31:45.085Z,58.80
2022-12-15T17:34:36.065Z,59.38
2022-12-15T17:37:05.444Z,58.85
2022-12-15T17:39:34.284Z,61.85
2022-12-15T17:42:02.800Z,62.25
2022-12-15T17:44:35.690Z,63.58
2022-12-15T17:47:06.149Z,68.93
2022-12-15T17:49:36.649Z,60.80
2022-12-15T17:52:23.199Z,70.70
2022-12-15T17:54:51.523Z,68.95
2022-12-15T17:57:19.163Z,68.38
2022-12-15T17:59:47.276Z,71.53
2022-12-15T18:02:15.412Z,71.95
2022-12-15T18:04:43.712Z,69.05
2022-12-15T18:07:16.274Z,79.10
2022-12-15T18:09:44.038Z,67.47
2022-12-15T18:12:16.920Z,75.78
2022-12-15T18:14:44.578Z,68.82
2022-12-15T18:17:12.161Z,73.60
2022-12-15T18:19:42.366Z,71.45
2022-12-15T18:22:18.724Z,72.00
2022-12-15T18:24:46.767Z,78.95
2022-12-15T18:27:19.389Z,77.90
2022-12-15T18:29:47.229Z,78.03
2022-12-15T18:32:14.835Z,80.43
2022-12-15T18:34:42.468Z,77.53
2022-12-15T18:37:17.407Z,83.22
2022-12-15T18:39:45.679Z,85.32
2022-12-15T18:42:15.235Z,80.93
2022-12-15T18:44:46.177Z,87.45
2022-12-15T18:47:21.152Z,78.80
2022-12-15T18:49:48.882Z,82.20
2022-12-15T18:52:21.106Z,83.70
2022-12-15T18:54:49.471Z,84.88
2022-12-15T18:57:30.578Z,80.82
2022-12-15T18:59:59.762Z,75.78
2022-12-15T19:02:27.490Z,80.72
2022-12-15T19:04:55.205Z,74.25
2022-12-15T19:07:22.800Z,76.28
2022-12-15T19:09:50.557Z,83.95
2022-12-15T19:12:18.169Z,82.63
2022-12-15T19:14:47.075Z,84.10
2022-12-15T19:17:35.088Z,83.00
2022-12-15T19:20:21.975Z,82.32
2022-12-15T19:22:49.628Z,81.72
2022-12-15T19:25:25.887Z,81.05
2022-12-15T19:28:00.691Z,85.20
2022-12-15T19:30:29.827Z,91.93
2022-12-15T19:32:57.472Z,80.28
2022-12-15T19:35:25.200Z,87.85
2022-12-15T19:37:55.998Z,87.03
2022-12-15T19:40:27.325Z,84.27
2022-12-15T19:42:55.476Z,86.40
2022-12-15T19:45:24.788Z,80.82
2022-12-15T19:47:52.427Z,87.00
2022-12-15T19:50:21.573Z,83.60
2022-12-15T19:52:57.306Z,85.82
2022-12-15T19:55:27.054Z,82.85
2022-12-15T19:57:54.756Z,74.25
2022-12-15T20:00:22.866Z,88.18
2022-12-15T20:02:51.574Z,86.43
2022-12-15T20:05:20.176Z,82.88
2022-12-15T20:07:48.023Z,81.78
2022-12-15T20:10:27.518Z,81.43
2022-12-15T20:12:57.290Z,75.55
2022-12-15T20:15:26.092Z,75.55
2022-12-15T20:17:56.535Z,78.95
2022-12-15T20:20:25.043Z,85.05
2022-12-15T20:22:54.780Z,87.72
2022-12-15T20:25:30.431Z,70.18
2022-12-15T20:28:00.489Z,71.28
2022-12-15T20:30:32.172Z,70.38
2022-12-15T20:35:28.540Z,74.22
2022-12-15T20:37:56.384Z,68.72
2022-12-15T20:40:29.621Z,72.55
2022-12-15T20:43:00.208Z,63.03
2022-12-15T20:45:39.191Z,68.10
2022-12-15T20:48:22.404Z,62.70
2022-12-15T20:50:53.424Z,65.18
2022-12-15T20:53:27.305Z,65.35
2022-12-15T20:56:01.393Z,63.85
2022-12-15T20:58:33.402Z,60.10
2022-12-15T21:01:01.437Z,61.28
2022-12-15T21:03:31.179Z,61.38
2022-12-15T21:05:59.548Z,51.58
2022-12-15T21:08:29.572Z,52.47
2022-12-15T21:11:00.541Z,47.05
2022-12-15T21:13:31.093Z,50.58
2022-12-15T21:15:59.036Z,46.97
2022-12-15T21:19:10.954Z,45.30
2022-12-15T21:21:20.568Z,46.40
2022-12-15T21:23:48.724Z,44.08
2022-12-15T21:26:20.273Z,45.53
2022-12-15T21:28:48.873Z,47.00
2022-12-15T21:31:17.269Z,45.20
2022-12-15T21:33:46.493Z,49.03
2022-12-15T21:36:14.931Z,41.40
2022-12-15T21:38:43.675Z,42.38
2022-12-15T21:41:16.181Z,41.15
2022-12-15T21:43:43.947Z,41.00
2022-12-15T21:46:16.664Z,39.92
2022-12-15T21:49:03.008Z,42.03
2022-12-15T21:51:32.167Z,36.60
2022-12-15T21:53:59.893Z,40.55
2022-12-15T21:56:28.622Z,35.60
2022-12-15T21:58:56.608Z,32.83
2022-12-15T22:01:29.042Z,35.25
2022-12-15T22:03:58.259Z,30.45
2022-12-15T22:06:27.308Z,32.83
2022-12-15T22:08:58.628Z,30.88
2022-12-15T22:11:29.033Z,32.08
2022-12-15T22:13:57.869Z,27.35
2022-12-15T22:16:27.183Z,27.50
2022-12-15T22:18:56.348Z,28.30
2022-12-15T22:21:25.028Z,29.75
2022-12-15T22:23:53.574Z,28.98
2022-12-15T22:26:23.972Z,26.55
2022-12-15T22:28:56.161Z,26.77
2022-12-15T22:31:24.416Z,28.70
2022-12-15T22:33:55.620Z,29.02
2022-12-15T22:36:23.413Z,29.10
2022-12-15T22:38:51.480Z,28.38
2022-12-15T22:41:24.420Z,26.92
2022-12-15T22:43:53.380Z,32.13
2022-12-15T22:46:24.414Z,33.55
2022-12-15T22:48:54.743Z,29.58
2022-12-15T22:51:23.098Z,28.98
2022-12-15T22:53:50.830Z,28.83
2022-12-15T22:56:22.421Z,29.17
2022-12-15T22:58:51.569Z,30.30
2022-12-15T23:01:19.490Z,29.55
2022-12-15T23:03:47.443Z,31.92
2022-12-15T23:06:15.052Z,28.15
2022-12-15T23:08:42.806Z,28.25
2022-12-15T23:11:29.127Z,27.58
2022-12-15T23:13:56.759Z,28.73
2022-12-15T23:16:24.403Z,29.55
2022-12-15T23:18:53.494Z,30.30
2022-12-15T23:21:23.743Z,27.73
2022-12-15T23:23:51.728Z,27.25
2022-12-15T23:26:20.927Z,29.17
2022-12-15T23:28:49.465Z,29.00
2022-12-15T23:31:17.440Z,28.10
2022-12-15T23:33:45.230Z,27.40
2022-12-15T23:36:13.295Z,30.25
2022-12-15T23:38:40.968Z,29.63
2022-12-15T23:41:08.671Z,30.95
2022-12-15T23:43:39.008Z,31.17
2022-12-15T23:46:07.930Z,30.83
2022-12-15T23:48:37.281Z,32.75
2022-12-15T23:51:05.057Z,29.35
2022-12-15T23:53:33.954Z,31.48
2022-12-15T23:56:21.229Z,34.92
2022-12-15T23:58:54.765Z,33.15
